Terminal Aerodrome Forecast
Issued by NWS

Home | Current Version | Previous Version | Text Only | Print | Product List | Glossary On
Versions: 1 2 3 4 5 6 7 8 9 10 11 12 13 14 15 16
234
FTUS45 KRIW 011720
TAFCOD
TAF
KCOD 011720Z 0118/0218 21010KT P6SM SCT080
     FM012200 VRB10G18KT P6SM VCTS SCT070CB BKN090
     FM020300 VRB06KT P6SM VCSH SCT070 BKN100
     FM020600 22008KT P6SM SCT100
     FM020900 27011G17KT 6SM -SHRA BKN060
     FM021200 VRB08KT P6SM VCSH BKN050
      AMD LTD TO CLD VIS AND WIND=

USA.gov is the U.S. government's official web portal to all federal, state and local government web resources and services.